Time;durP1;ratioP1;P1;durP2;ratioP2;P2;SDS_P1;SDS_P2;PMS_P1;PMS_P2;Temp;Humidity;BMP_temperature;BMP_pressure;BME280_temperature;BME280_humidity;BME280_pressure;Samples;Min_cycle;Max_cycle;Signal;HPM_P1;HPM_P2
2023/09/15 00:00:32;;;;;;;7.50;2.78;;;17.70;64.30;;;;;;5102295;28;20123;-61
2023/09/15 00:02:56;;;;;;;7.90;2.67;;;17.70;64.30;;;;;;5098993;28;20049;-60
2023/09/15 00:05:23;;;;;;;9.63;2.22;;;17.70;64.10;;;;;;5106499;28;20410;-62
2023/09/15 00:07:49;;;;;;;6.35;2.50;;;17.60;64.00;;;;;;5098927;28;20075;-62
2023/09/15 00:10:15;;;;;;;8.73;2.83;;;17.60;63.90;;;;;;5066347;28;20622;-61
2023/09/15 00:12:44;;;;;;;5.85;2.50;;;17.60;63.80;;;;;;5084621;28;20028;-61
2023/09/15 00:15:11;;;;;;;5.18;2.55;;;17.50;63.90;;;;;;5085698;28;20126;-61
2023/09/15 00:17:39;;;;;;;6.80;2.70;;;17.40;64.00;;;;;;5077784;28;20020;-61
2023/09/15 00:20:14;;;;;;;4.07;2.22;;;17.40;64.30;;;;;;5088723;28;20032;-60
2023/09/15 00:22:50;;;;;;;4.53;2.45;;;17.40;64.80;;;;;;5084147;28;20043;-61
2023/09/15 00:25:20;;;;;;;7.38;2.70;;;17.40;65.20;;;;;;5076358;28;20470;-61
2023/09/15 00:27:47;;;;;;;5.13;2.80;;;17.30;64.80;;;;;;5082563;28;20021;-61
2023/09/15 00:30:15;;;;;;;5.10;2.50;;;17.30;64.80;;;;;;5082958;28;20028;-62
2023/09/15 00:32:41;;;;;;;9.98;2.50;;;17.30;64.70;;;;;;5082247;28;20387;-60
2023/09/15 00:35:07;;;;;;;4.85;2.58;;;17.30;64.80;;;;;;5086192;28;20020;-60
2023/09/15 00:37:33;;;;;;;7.32;2.95;;;17.20;64.80;;;;;;5086564;28;20051;-61
2023/09/15 00:39:58;;;;;;;5.50;2.63;;;17.20;64.80;;;;;;5083548;28;20024;-62
2023/09/15 00:42:27;;;;;;;6.75;2.90;;;17.20;64.80;;;;;;5088591;28;20100;-61
2023/09/15 00:44:52;;;;;;;5.05;2.88;;;17.20;64.80;;;;;;5088532;28;20049;-60
2023/09/15 00:47:18;;;;;;;3.35;2.53;;;17.10;64.80;;;;;;5086825;28;20095;-60
2023/09/15 00:49:47;;;;;;;4.22;2.90;;;17.10;65.10;;;;;;5089124;28;20036;-61
2023/09/15 00:52:15;;;;;;;3.78;2.67;;;17.10;65.50;;;;;;5088953;28;20153;-62
2023/09/15 00:54:41;;;;;;;6.93;2.67;;;17.10;65.50;;;;;;5087485;28;20036;-61
2023/09/15 00:57:07;;;;;;;5.80;3.00;;;17.10;65.60;;;;;;5090654;28;20035;-62
2023/09/15 00:59:33;;;;;;;10.32;2.83;;;17.10;65.50;;;;;;5086397;28;20344;-61
2023/09/15 01:02:00;;;;;;;6.53;2.72;;;17.10;65.30;;;;;;5081272;28;20034;-60
2023/09/15 01:04:29;;;;;;;4.82;2.83;;;17.10;65.10;;;;;;5089278;28;20046;-60
2023/09/15 01:06:57;;;;;;;4.93;2.60;;;17.10;65.30;;;;;;5082487;28;20619;-61
2023/09/15 01:09:23;;;;;;;4.47;2.58;;;17.00;65.10;;;;;;5082876;28;20016;-61
2023/09/15 01:11:50;;;;;;;7.07;2.60;;;17.00;65.10;;;;;;5086502;28;20035;-61
2023/09/15 01:14:16;;;;;;;6.15;2.90;;;17.00;65.10;;;;;;5088394;28;20447;-61
2023/09/15 01:16:57;;;;;;;3.92;2.60;;;16.90;65.10;;;;;;5081841;28;20040;-61
2023/09/15 01:19:54;;;;;;;6.03;2.63;;;16.90;65.20;;;;;;5092810;28;20025;-61
2023/09/15 01:22:38;;;;;;;5.50;2.33;;;16.90;65.50;;;;;;4977809;28;20042;-61
2023/09/15 01:25:18;;;;;;;4.40;2.80;;;16.80;65.40;;;;;;4982568;28;20030;-60
2023/09/15 01:28:17;;;;;;;3.80;2.55;;;16.80;65.10;;;;;;4977547;28;20033;-61
2023/09/15 01:30:44;;;;;;;4.05;2.25;;;16.80;66.80;;;;;;4975554;28;20027;-60
2023/09/15 01:33:13;;;;;;;5.32;2.35;;;16.70;65.50;;;;;;4976302;28;20040;-60
2023/09/15 01:35:39;;;;;;;5.63;2.75;;;16.70;65.70;;;;;;4983615;28;20050;-61
2023/09/15 01:38:04;;;;;;;5.82;2.95;;;16.70;66.00;;;;;;4987106;28;20061;-60
2023/09/15 01:40:31;;;;;;;5.80;3.00;;;16.70;66.20;;;;;;4979244;28;20037;-61
2023/09/15 01:42:57;;;;;;;7.28;3.03;;;16.70;66.40;;;;;;4979547;28;20382;-62
2023/09/15 01:45:22;;;;;;;8.02;3.08;;;16.70;66.40;;;;;;4975186;28;20050;-60
2023/09/15 01:47:49;;;;;;;5.22;3.40;;;16.70;66.40;;;;;;4989153;28;20022;-61
2023/09/15 01:50:15;;;;;;;5.65;3.30;;;16.70;66.40;;;;;;4972275;28;20034;-61
2023/09/15 01:52:42;;;;;;;10.70;3.25;;;16.70;66.30;;;;;;4986499;28;20039;-61
2023/09/15 01:55:09;;;;;;;6.45;2.80;;;16.70;66.30;;;;;;4980943;28;20531;-61
2023/09/15 01:57:35;;;;;;;3.45;2.58;;;16.70;66.30;;;;;;4971116;28;20493;-61
2023/09/15 02:00:01;;;;;;;4.38;2.53;;;16.70;66.40;;;;;;5056342;28;20040;-61
2023/09/15 02:02:27;;;;;;;4.65;2.70;;;16.70;66.60;;;;;;5085540;28;20043;-61
2023/09/15 02:04:53;;;;;;;5.53;2.95;;;16.70;66.80;;;;;;5085398;28;20031;-60
2023/09/15 02:07:19;;;;;;;3.50;2.65;;;16.70;67.10;;;;;;5082777;28;20052;-61
2023/09/15 02:09:44;;;;;;;5.60;2.80;;;16.70;66.80;;;;;;5082408;28;20553;-62
2023/09/15 02:12:10;;;;;;;4.43;3.10;;;16.70;66.70;;;;;;5069893;28;20032;-61
2023/09/15 02:14:36;;;;;;;3.92;2.75;;;16.70;66.80;;;;;;5094176;28;20032;-62
2023/09/15 02:17:02;;;;;;;9.77;3.03;;;16.70;66.80;;;;;;5087569;28;20044;-61
2023/09/15 02:19:29;;;;;;;8.75;3.40;;;16.80;66.70;;;;;;5084096;28;20097;-62
2023/09/15 02:21:54;;;;;;;4.55;2.70;;;16.80;66.60;;;;;;5087489;28;20478;-61
2023/09/15 02:24:20;;;;;;;6.53;2.88;;;16.80;66.50;;;;;;5085946;28;20039;-61
2023/09/15 02:26:46;;;;;;;4.18;2.63;;;16.70;66.40;;;;;;5086279;28;20020;-61
2023/09/15 02:29:11;;;;;;;7.45;2.85;;;16.70;66.60;;;;;;5082938;28;20031;-60
2023/09/15 02:31:38;;;;;;;5.78;2.88;;;16.70;66.60;;;;;;5067086;28;20398;-62
2023/09/15 02:34:04;;;;;;;4.32;2.85;;;16.70;66.50;;;;;;5083573;28;20483;-61
2023/09/15 02:36:30;;;;;;;7.55;2.47;;;16.70;66.40;;;;;;5084282;28;20032;-61
2023/09/15 02:38:55;;;;;;;7.65;2.70;;;16.70;66.70;;;;;;5086187;28;20023;-63
2023/09/15 02:41:22;;;;;;;4.30;2.85;;;16.70;66.70;;;;;;5080934;28;20028;-62
2023/09/15 02:43:47;;;;;;;4.72;2.95;;;16.70;66.60;;;;;;5084663;28;20020;-61
2023/09/15 02:46:13;;;;;;;5.72;2.60;;;16.70;67.30;;;;;;5081669;28;20510;-61
2023/09/15 02:48:41;;;;;;;4.97;2.78;;;16.70;66.60;;;;;;5083836;28;20507;-62
2023/09/15 02:51:07;;;;;;;3.38;2.35;;;16.70;66.60;;;;;;5087521;28;20479;-61
2023/09/15 02:53:33;;;;;;;4.53;2.80;;;16.70;66.80;;;;;;5087028;28;20043;-61
2023/09/15 02:56:00;;;;;;;3.28;2.75;;;16.70;67.00;;;;;;5086166;28;20067;-61
2023/09/15 02:58:27;;;;;;;10.02;2.78;;;16.70;67.00;;;;;;5082440;28;20077;-61
2023/09/15 03:00:53;;;;;;;3.58;2.78;;;16.70;67.10;;;;;;5087019;28;20577;-62
2023/09/15 03:03:25;;;;;;;3.63;2.70;;;16.70;67.00;;;;;;5091305;28;20189;-61
2023/09/15 03:06:04;;;;;;;4.40;2.83;;;16.70;66.80;;;;;;5088081;28;20032;-61
2023/09/15 03:08:29;;;;;;;4.28;2.90;;;16.70;66.60;;;;;;5095610;27;20051;-61
2023/09/15 03:10:55;;;;;;;3.90;2.75;;;16.70;66.40;;;;;;5109524;27;20099;-61
2023/09/15 03:13:21;;;;;;;5.80;2.85;;;16.70;66.40;;;;;;5108038;27;20035;-61
2023/09/15 03:15:46;;;;;;;7.25;3.05;;;16.60;66.30;;;;;;5105882;27;20039;-62
2023/09/15 03:18:12;;;;;;;10.10;2.80;;;16.60;66.50;;;;;;5110629;27;20038;-61
2023/09/15 03:20:38;;;;;;;6.07;2.78;;;16.60;66.60;;;;;;5104008;28;20051;-62
2023/09/15 03:23:03;;;;;;;8.25;3.10;;;16.60;66.60;;;;;;5101497;27;20066;-62
2023/09/15 03:25:29;;;;;;;6.07;2.85;;;16.60;66.50;;;;;;5103712;27;20415;-61
2023/09/15 03:27:55;;;;;;;5.50;2.80;;;16.50;66.50;;;;;;5106272;27;20023;-62
2023/09/15 03:30:21;;;;;;;5.20;2.92;;;16.50;66.50;;;;;;5107098;27;20066;-61
2023/09/15 03:32:47;;;;;;;6.03;2.83;;;16.50;66.60;;;;;;5105042;27;20019;-61
2023/09/15 03:35:13;;;;;;;7.05;3.00;;;16.50;66.70;;;;;;5106676;27;20091;-61
2023/09/15 03:37:39;;;;;;;5.57;2.80;;;16.40;66.90;;;;;;5100256;28;20544;-60
2023/09/15 03:40:08;;;;;;;5.78;3.08;;;16.40;67.10;;;;;;5101156;27;20107;-61
2023/09/15 03:42:34;;;;;;;7.80;2.75;;;16.40;67.30;;;;;;5107152;27;20565;-60
2023/09/15 03:45:00;;;;;;;3.65;2.80;;;16.40;67.50;;;;;;5041367;27;20663;-61
2023/09/15 03:47:25;;;;;;;6.05;2.63;;;16.40;67.70;;;;;;5111429;27;20095;-62
2023/09/15 03:49:51;;;;;;;6.05;2.90;;;16.50;67.90;;;;;;5106652;27;20023;-61
2023/09/15 03:52:17;;;;;;;4.57;2.80;;;16.60;68.20;;;;;;5106140;28;20106;-61
2023/09/15 03:54:43;;;;;;;4.22;2.85;;;16.60;68.00;;;;;;5101457;27;20591;-61
2023/09/15 03:57:08;;;;;;;6.75;2.90;;;16.70;67.70;;;;;;5101025;28;20035;-61
2023/09/15 03:59:35;;;;;;;6.53;2.85;;;16.70;67.40;;;;;;5106365;28;20351;-61
2023/09/15 04:02:03;;;;;;;6.60;3.17;;;16.70;67.40;;;;;;5105016;28;20031;-61
2023/09/15 04:04:29;;;;;;;9.50;3.17;;;16.80;67.40;;;;;;5099223;28;20497;-61
2023/09/15 04:06:55;;;;;;;5.53;2.90;;;16.80;67.20;;;;;;5105036;28;20051;-60
2023/09/15 04:09:24;;;;;;;5.68;2.75;;;16.80;67.10;;;;;;5106366;28;20070;-62
2023/09/15 04:11:51;;;;;;;5.50;2.92;;;16.80;67.00;;;;;;5110297;27;20023;-60
2023/09/15 04:14:17;;;;;;;5.75;3.00;;;16.80;67.00;;;;;;5111883;27;20080;-61
2023/09/15 04:16:42;;;;;;;5.88;2.80;;;16.80;67.00;;;;;;5105983;28;20039;-61
2023/09/15 04:19:08;;;;;;;5.60;2.88;;;16.80;67.10;;;;;;5107761;27;20405;-61
2023/09/15 04:21:35;;;;;;;3.40;2.58;;;16.80;67.00;;;;;;5111621;27;20025;-62
2023/09/15 04:24:01;;;;;;;4.72;2.90;;;16.80;66.70;;;;;;5109073;27;20031;-60
2023/09/15 04:26:26;;;;;;;4.32;2.88;;;16.70;66.60;;;;;;5111947;27;20030;-62
2023/09/15 04:28:52;;;;;;;6.53;2.83;;;16.70;66.60;;;;;;5108337;27;20028;-61
2023/09/15 04:31:17;;;;;;;5.57;2.83;;;16.70;66.70;;;;;;5106085;28;20045;-61
2023/09/15 04:33:44;;;;;;;9.00;2.85;;;16.60;66.60;;;;;;5103159;27;20106;-61
2023/09/15 04:36:09;;;;;;;9.23;3.53;;;16.60;66.70;;;;;;5105413;27;20031;-60
2023/09/15 04:38:35;;;;;;;6.53;2.95;;;16.50;66.60;;;;;;5113533;27;20070;-61
2023/09/15 04:41:01;;;;;;;6.15;3.05;;;16.50;66.70;;;;;;5109996;27;20054;-61
2023/09/15 04:43:29;;;;;;;3.83;2.90;;;16.50;66.70;;;;;;5102893;27;20027;-61
2023/09/15 04:45:56;;;;;;;3.78;2.85;;;16.40;66.70;;;;;;5106479;28;20019;-61
2023/09/15 04:48:22;;;;;;;5.28;2.72;;;16.40;66.90;;;;;;5102980;27;20467;-61
2023/09/15 04:50:47;;;;;;;5.22;3.42;;;16.40;67.20;;;;;;5108963;27;20042;-61
2023/09/15 04:53:14;;;;;;;3.28;2.72;;;16.40;67.30;;;;;;5110418;27;20476;-61
2023/09/15 04:55:40;;;;;;;4.82;2.72;;;16.40;67.30;;;;;;5108256;27;20133;-61
2023/09/15 04:58:06;;;;;;;4.30;3.08;;;16.40;67.30;;;;;;5108424;27;20394;-61
2023/09/15 05:00:34;;;;;;;5.38;2.90;;;16.40;67.20;;;;;;5087228;28;20031;-61
2023/09/15 05:03:00;;;;;;;8.00;3.00;;;16.40;67.40;;;;;;5104890;27;20030;-60
2023/09/15 05:05:26;;;;;;;5.82;2.63;;;16.30;67.50;;;;;;5102330;28;20019;-61
2023/09/15 05:07:52;;;;;;;7.10;2.65;;;16.30;67.40;;;;;;5103396;28;20130;-61
2023/09/15 05:10:18;;;;;;;9.40;3.40;;;16.40;67.60;;;;;;5108610;27;20106;-62
2023/09/15 05:12:44;;;;;;;9.90;3.17;;;16.30;67.40;;;;;;5103673;27;20032;-61
2023/09/15 05:15:10;;;;;;;3.30;2.72;;;16.30;67.30;;;;;;5108181;27;20386;-60
2023/09/15 05:17:37;;;;;;;7.38;3.10;;;16.30;67.40;;;;;;5114462;27;20028;-61
2023/09/15 05:20:03;;;;;;;5.93;2.75;;;16.30;67.50;;;;;;5105411;27;20026;-61
2023/09/15 05:22:29;;;;;;;4.65;2.58;;;16.30;67.60;;;;;;5104882;27;20031;-60
2023/09/15 05:24:55;;;;;;;5.55;3.03;;;16.30;67.70;;;;;;5101117;27;20028;-61
2023/09/15 05:27:21;;;;;;;5.95;3.33;;;16.30;67.70;;;;;;5105674;27;20033;-61
2023/09/15 05:29:47;;;;;;;5.97;2.72;;;16.30;67.70;;;;;;5107154;27;20474;-60
2023/09/15 05:32:13;;;;;;;7.22;2.88;;;16.40;67.60;;;;;;5109195;27;20023;-61
2023/09/15 05:34:38;;;;;;;12.45;4.13;;;16.30;67.50;;;;;;5108110;27;20039;-62
2023/09/15 05:37:04;;;;;;;8.25;4.18;;;16.30;67.50;;;;;;5108203;27;20093;-61
2023/09/15 05:39:33;;;;;;;9.93;3.63;;;16.30;67.60;;;;;;5102902;27;20038;-61
2023/09/15 05:41:59;;;;;;;10.77;2.92;;;16.30;67.80;;;;;;5102659;27;20502;-60
2023/09/15 05:44:24;;;;;;;6.82;3.30;;;16.30;67.80;;;;;;5101555;28;20577;-60
2023/09/15 05:46:52;;;;;;;6.85;3.35;;;16.40;67.90;;;;;;5101705;27;20016;-61
2023/09/15 05:49:18;;;;;;;12.93;3.10;;;16.40;68.10;;;;;;5107371;27;20056;-62
2023/09/15 05:51:43;;;;;;;23.63;3.85;;;16.40;68.20;;;;;;5109068;27;20124;-61
2023/09/15 05:54:09;;;;;;;11.40;3.35;;;16.40;68.20;;;;;;5104355;28;20506;-61
2023/09/15 05:56:35;;;;;;;19.42;4.05;;;16.60;68.30;;;;;;5106186;27;20035;-61
2023/09/15 05:59:01;;;;;;;12.52;3.53;;;16.60;68.10;;;;;;5100119;28;20469;-61
2023/09/15 06:01:27;;;;;;;18.33;3.45;;;16.70;67.90;;;;;;5103088;28;20028;-61
2023/09/15 06:03:52;;;;;;;16.02;3.75;;;16.80;67.90;;;;;;5106205;27;20019;-60
2023/09/15 06:06:18;;;;;;;11.05;3.78;;;16.90;67.90;;;;;;5107977;27;20095;-60
2023/09/15 06:08:44;;;;;;;16.98;3.65;;;16.90;67.60;;;;;;5104911;28;20561;-61
2023/09/15 06:11:10;;;;;;;19.58;3.47;;;17.00;67.50;;;;;;5097434;28;20028;-60
2023/09/15 06:13:36;;;;;;;7.53;3.33;;;17.10;67.40;;;;;;5087605;28;20032;-61
2023/09/15 06:16:04;;;;;;;12.88;3.95;;;17.10;67.40;;;;;;5103896;27;20044;-61
2023/09/15 06:18:30;;;;;;;13.93;3.97;;;17.20;68.20;;;;;;5106905;27;20094;-61
2023/09/15 06:20:56;;;;;;;6.65;3.40;;;17.30;67.40;;;;;;5106009;27;20047;-61
2023/09/15 06:23:22;;;;;;;14.25;3.22;;;17.30;67.30;;;;;;5104836;27;20592;-62
2023/09/15 06:25:48;;;;;;;10.63;3.80;;;17.50;67.40;;;;;;5085275;27;20036;-61
2023/09/15 06:28:14;;;;;;;14.45;3.60;;;17.50;67.30;;;;;;5100996;27;20024;-62
2023/09/15 06:30:40;;;;;;;10.43;3.35;;;17.60;67.10;;;;;;5086578;27;20037;-61
2023/09/15 06:33:06;;;;;;;16.30;4.43;;;17.80;67.20;;;;;;5106053;27;20027;-61
2023/09/15 06:35:31;;;;;;;22.80;4.15;;;17.80;67.80;;;;;;5105571;28;20035;-61
2023/09/15 06:37:57;;;;;;;15.55;3.95;;;18.00;66.80;;;;;;5109821;27;20030;-61
2023/09/15 06:40:23;;;;;;;15.70;4.15;;;18.00;66.60;;;;;;5085860;27;20042;-61
2023/09/15 06:42:48;;;;;;;12.98;4.15;;;18.10;66.30;;;;;;5103039;27;20023;-62
2023/09/15 06:45:14;;;;;;;18.60;4.05;;;18.20;66.10;;;;;;4997422;28;20031;-60
2023/09/15 06:47:40;;;;;;;14.80;4.00;;;18.30;66.00;;;;;;5096693;27;20015;-61
2023/09/15 06:50:06;;;;;;;19.20;3.83;;;18.40;66.00;;;;;;5079202;28;20040;-61
2023/09/15 06:52:32;;;;;;;13.73;4.30;;;18.50;65.90;;;;;;5110612;27;20028;-61
2023/09/15 06:54:57;;;;;;;14.45;3.92;;;18.50;65.90;;;;;;5111649;27;20020;-62
2023/09/15 06:57:23;;;;;;;10.88;4.45;;;18.60;65.90;;;;;;5107337;27;20129;-61
2023/09/15 06:59:49;;;;;;;13.85;5.03;;;18.70;66.00;;;;;;5102913;27;20024;-62
2023/09/15 07:02:15;;;;;;;13.10;5.20;;;18.80;66.10;;;;;;5103056;27;20378;-62
2023/09/15 07:04:43;;;;;;;19.38;6.00;;;18.80;66.30;;;;;;5085639;28;20062;-61
2023/09/15 07:07:09;;;;;;;9.98;5.45;;;18.90;66.40;;;;;;5102537;27;20063;-61
2023/09/15 07:09:35;;;;;;;9.40;5.72;;;19.00;66.30;;;;;;5087908;28;20379;-60
2023/09/15 07:12:01;;;;;;;10.40;5.60;;;19.10;66.30;;;;;;5092513;28;20039;-60
2023/09/15 07:14:27;;;;;;;20.45;6.55;;;19.10;66.50;;;;;;5083218;28;20029;-60
2023/09/15 07:16:53;;;;;;;13.07;6.40;;;19.20;66.50;;;;;;5092200;28;20036;-62
2023/09/15 07:19:19;;;;;;;12.55;7.13;;;19.30;66.50;;;;;;5081345;28;20141;-60
2023/09/15 07:21:44;;;;;;;12.68;6.63;;;19.40;66.40;;;;;;5076276;28;20039;-61
2023/09/15 07:24:11;;;;;;;19.48;8.63;;;19.40;66.50;;;;;;5086218;28;20502;-61
2023/09/15 07:26:37;;;;;;;10.73;7.80;;;19.50;66.60;;;;;;5075507;28;20715;-61
2023/09/15 07:29:03;;;;;;;17.85;7.80;;;19.60;66.70;;;;;;5093649;28;20039;-62
2023/09/15 07:31:40;;;;;;;11.10;7.85;;;19.70;66.70;;;;;;5085203;28;20024;-62
2023/09/15 07:34:05;;;;;;;14.27;8.50;;;19.70;66.70;;;;;;5091564;28;20035;-62
2023/09/15 07:36:31;;;;;;;16.05;9.10;;;19.80;66.80;;;;;;5093311;28;20042;-61
2023/09/15 07:38:57;;;;;;;13.93;9.45;;;19.90;67.00;;;;;;5084769;28;20040;-61
2023/09/15 07:41:22;;;;;;;14.20;9.98;;;19.90;67.10;;;;;;5093396;28;20016;-61
2023/09/15 07:43:48;;;;;;;15.55;10.35;;;20.00;67.20;;;;;;5087954;28;20067;-62
2023/09/15 07:46:14;;;;;;;13.43;10.60;;;20.10;67.20;;;;;;4998937;28;20414;-61
2023/09/15 07:48:40;;;;;;;13.23;10.35;;;20.20;67.30;;;;;;5079601;28;20024;-61
2023/09/15 07:51:06;;;;;;;14.07;9.88;;;20.30;67.10;;;;;;5084351;28;20360;-60
2023/09/15 07:53:32;;;;;;;15.27;9.75;;;20.40;66.90;;;;;;5077564;28;20052;-61
2023/09/15 07:55:58;;;;;;;16.90;10.13;;;20.60;66.70;;;;;;5083824;28;20043;-61
2023/09/15 07:58:24;;;;;;;16.15;11.00;;;20.70;66.70;;;;;;5085674;28;20024;-60
2023/09/15 08:00:49;;;;;;;16.98;10.75;;;20.80;66.70;;;;;;5085787;28;20099;-61
2023/09/15 08:03:15;;;;;;;17.02;12.00;;;20.90;66.40;;;;;;5083976;28;20032;-61
2023/09/15 08:05:41;;;;;;;14.05;10.98;;;21.10;66.30;;;;;;5085162;28;20035;-60
2023/09/15 08:08:06;;;;;;;13.45;10.25;;;21.20;66.00;;;;;;5091346;28;20126;-61
2023/09/15 08:10:32;;;;;;;15.60;10.15;;;21.30;65.70;;;;;;5104065;28;20047;-61
2023/09/15 08:12:58;;;;;;;12.60;9.88;;;21.50;65.30;;;;;;5109966;28;20028;-62
2023/09/15 08:15:23;;;;;;;19.20;10.05;;;21.60;65.00;;;;;;5108177;28;20028;-62
2023/09/15 08:17:49;;;;;;;12.43;9.20;;;21.70;64.60;;;;;;5112349;28;20031;-61
2023/09/15 08:20:15;;;;;;;12.45;9.05;;;21.70;64.30;;;;;;5104875;28;20118;-63
2023/09/15 08:22:42;;;;;;;14.73;10.13;;;21.80;64.10;;;;;;5107002;28;20028;-62
2023/09/15 08:25:10;;;;;;;14.43;10.57;;;21.80;63.50;;;;;;5100759;28;20048;-61
2023/09/15 08:27:37;;;;;;;17.17;10.43;;;21.70;63.20;;;;;;5102676;28;20541;-62
2023/09/15 08:30:03;;;;;;;16.10;10.13;;;21.70;63.20;;;;;;5110763;28;20032;-62
2023/09/15 08:32:31;;;;;;;13.05;8.90;;;21.60;63.10;;;;;;5104255;28;20020;-62
2023/09/15 08:34:57;;;;;;;13.02;9.48;;;21.60;63.30;;;;;;5103978;28;20031;-62
2023/09/15 08:37:23;;;;;;;14.00;10.20;;;21.50;63.60;;;;;;5107281;28;20067;-62
2023/09/15 08:39:49;;;;;;;17.50;10.90;;;21.50;63.40;;;;;;5102201;28;20441;-61
2023/09/15 08:42:25;;;;;;;14.75;10.73;;;21.50;63.50;;;;;;5107796;28;20032;-61
2023/09/15 08:44:51;;;;;;;12.95;9.45;;;21.40;63.50;;;;;;5090088;28;20024;-62
2023/09/15 08:47:19;;;;;;;14.02;10.55;;;21.40;63.70;;;;;;5105405;28;20027;-61
2023/09/15 08:49:45;;;;;;;14.55;10.65;;;21.40;63.70;;;;;;5081564;28;20020;-62
2023/09/15 08:52:13;;;;;;;14.38;10.35;;;21.40;63.80;;;;;;5102644;28;21390;-61
2023/09/15 08:54:40;;;;;;;14.32;10.55;;;21.40;63.90;;;;;;5108417;28;20123;-61
2023/09/15 08:57:06;;;;;;;16.00;10.43;;;21.40;64.00;;;;;;5113311;27;20042;-61
2023/09/15 08:59:33;;;;;;;14.25;10.05;;;21.40;64.20;;;;;;5108388;27;20020;-61
2023/09/15 09:01:59;;;;;;;17.58;10.80;;;21.40;64.10;;;;;;5111531;27;20110;-61
2023/09/15 09:04:25;;;;;;;13.48;9.85;;;21.50;63.90;;;;;;5075691;28;20097;-62
2023/09/15 09:06:51;;;;;;;11.73;9.30;;;21.50;63.90;;;;;;5099589;28;20024;-61
2023/09/15 09:09:17;;;;;;;13.50;9.10;;;21.50;63.80;;;;;;5094640;27;20102;-61
2023/09/15 09:11:42;;;;;;;13.15;9.65;;;21.50;63.70;;;;;;5089596;28;20038;-62
2023/09/15 09:14:12;;;;;;;13.13;8.93;;;21.50;63.40;;;;;;5091415;28;20027;-62
2023/09/15 09:16:44;;;;;;;13.73;9.02;;;21.50;63.70;;;;;;5103380;27;20039;-62
2023/09/15 09:19:10;;;;;;;10.23;8.07;;;21.60;63.50;;;;;;5107379;27;20101;-62
2023/09/15 09:21:37;;;;;;;15.20;8.63;;;21.60;63.30;;;;;;5103039;27;20020;-61
2023/09/15 09:24:04;;;;;;;12.00;9.45;;;21.60;63.20;;;;;;5105551;27;20027;-61
2023/09/15 09:26:29;;;;;;;12.23;9.13;;;21.70;63.30;;;;;;5103251;27;20024;-62
2023/09/15 09:28:58;;;;;;;10.93;8.40;;;21.80;63.50;;;;;;5106703;27;20402;-61
2023/09/15 09:31:26;;;;;;;12.35;9.00;;;21.90;63.50;;;;;;5111591;27;20063;-61
2023/09/15 09:33:56;;;;;;;12.80;8.98;;;22.00;63.50;;;;;;5099868;27;20397;-61
2023/09/15 09:36:22;;;;;;;13.15;8.80;;;22.10;63.20;;;;;;5105083;27;20034;-63
2023/09/15 09:38:49;;;;;;;13.88;8.90;;;22.20;62.40;;;;;;5096877;27;20051;-61
2023/09/15 09:41:20;;;;;;;12.50;8.70;;;22.30;62.30;;;;;;5110211;27;20036;-61
2023/09/15 09:43:47;;;;;;;11.85;9.48;;;22.40;62.20;;;;;;5110633;27;20039;-61
2023/09/15 09:46:22;;;;;;;13.02;9.75;;;22.50;61.60;;;;;;5023261;27;20043;-62
2023/09/15 09:48:50;;;;;;;9.60;7.88;;;22.70;60.70;;;;;;5097986;28;20371;-61
2023/09/15 09:51:17;;;;;;;11.70;8.20;;;22.70;60.40;;;;;;5108870;27;20038;-62
2023/09/15 09:53:43;;;;;;;11.55;8.93;;;22.70;60.20;;;;;;5080583;28;20189;-61
2023/09/15 09:56:08;;;;;;;11.15;8.73;;;22.70;60.20;;;;;;5106519;27;20095;-61
2023/09/15 09:58:36;;;;;;;11.50;8.57;;;22.70;60.50;;;;;;5105916;27;20023;-62
2023/09/15 10:01:11;;;;;;;15.18;8.68;;;22.60;60.20;;;;;;5103732;28;20479;-62
2023/09/15 10:03:38;;;;;;;10.65;8.73;;;22.70;59.90;;;;;;5112358;27;20038;-63
2023/09/15 10:06:04;;;;;;;15.25;9.10;;;22.70;60.30;;;;;;5103636;28;20103;-62
2023/09/15 10:08:30;;;;;;;11.88;8.85;;;22.80;60.60;;;;;;5096613;28;20052;-62
2023/09/15 10:10:56;;;;;;;11.10;9.07;;;22.90;60.50;;;;;;5096191;28;20418;-62
2023/09/15 10:13:23;;;;;;;10.85;8.70;;;23.10;60.50;;;;;;5090947;28;20077;-62
2023/09/15 10:15:51;;;;;;;14.60;8.88;;;23.20;60.30;;;;;;5091028;28;20503;-61
2023/09/15 10:18:19;;;;;;;11.18;7.85;;;23.40;59.70;;;;;;5082906;28;20023;-61
2023/09/15 10:20:49;;;;;;;10.77;8.05;;;23.50;59.40;;;;;;5090133;28;20015;-61
2023/09/15 10:23:15;;;;;;;10.57;8.27;;;23.70;59.40;;;;;;5089967;28;20037;-60
2023/09/15 10:25:47;;;;;;;13.57;8.18;;;23.80;59.20;;;;;;5091205;28;20077;-62
2023/09/15 10:28:13;;;;;;;8.15;7.22;;;24.00;59.00;;;;;;5088763;28;20022;-62
2023/09/15 10:30:40;;;;;;;9.52;8.15;;;24.10;58.60;;;;;;5089746;28;20051;-61
2023/09/15 10:33:07;;;;;;;10.80;8.52;;;24.20;58.10;;;;;;5084253;28;20020;-61
2023/09/15 10:35:33;;;;;;;9.52;7.50;;;24.30;57.80;;;;;;5092275;28;20498;-63
2023/09/15 10:38:03;;;;;;;10.57;7.88;;;24.30;57.40;;;;;;5082662;28;20099;-61
2023/09/15 10:41:05;;;;;;;11.85;9.07;;;24.40;57.40;;;;;;5085673;28;20119;-63
2023/09/15 10:43:31;;;;;;;10.32;8.70;;;24.50;56.10;;;;;;4997691;28;20050;-61
2023/09/15 10:46:02;;;;;;;11.25;8.63;;;24.50;56.70;;;;;;5001890;28;20056;-61
2023/09/15 10:48:37;;;;;;;10.40;7.90;;;24.50;57.00;;;;;;5000447;28;20170;-61
2023/09/15 10:51:07;;;;;;;10.85;7.53;;;24.50;56.80;;;;;;5003585;28;20082;-62
2023/09/15 10:54:02;;;;;;;11.32;7.93;;;24.60;57.10;;;;;;5006551;28;20038;-61
2023/09/15 10:56:28;;;;;;;10.60;7.47;;;24.70;56.70;;;;;;4983350;28;20136;-63
2023/09/15 10:58:54;;;;;;;9.80;8.02;;;24.70;57.50;;;;;;5007311;28;20129;-62
2023/09/15 11:01:20;;;;;;;17.42;8.68;;;24.90;56.90;;;;;;5008640;28;20160;-61
2023/09/15 11:03:46;;;;;;;9.93;8.23;;;25.00;56.40;;;;;;5005451;28;20472;-62
2023/09/15 11:06:13;;;;;;;15.80;8.70;;;25.00;56.20;;;;;;5001534;28;20504;-62
2023/09/15 11:08:39;;;;;;;9.93;8.48;;;25.20;56.20;;;;;;5008659;28;20050;-61
2023/09/15 11:11:09;;;;;;;10.48;7.88;;;25.30;55.90;;;;;;5029614;28;20044;-61
2023/09/15 11:13:35;;;;;;;11.85;9.35;;;25.30;56.00;;;;;;5031702;28;20044;-61
2023/09/15 11:16:02;;;;;;;13.73;9.68;;;25.40;55.90;;;;;;5027045;28;20087;-63
2023/09/15 11:18:31;;;;;;;11.25;8.90;;;25.50;55.30;;;;;;5047981;28;20391;-62
2023/09/15 11:20:58;;;;;;;14.25;9.15;;;25.60;55.00;;;;;;5106324;27;20051;-61
2023/09/15 11:23:26;;;;;;;18.27;9.77;;;25.50;55.10;;;;;;5103895;28;20081;-61
2023/09/15 11:26:03;;;;;;;16.55;8.82;;;25.70;55.00;;;;;;5111905;27;20042;-62
2023/09/15 11:28:35;;;;;;;19.73;10.25;;;25.70;54.90;;;;;;5103033;28;20032;-61
2023/09/15 11:31:05;;;;;;;14.00;9.90;;;25.80;54.70;;;;;;5087887;28;20091;-62
2023/09/15 11:33:31;;;;;;;12.60;9.55;;;25.90;55.20;;;;;;5112502;27;20028;-60
2023/09/15 11:35:57;;;;;;;16.05;9.15;;;26.00;54.80;;;;;;5084688;28;20042;-61
2023/09/15 11:38:24;;;;;;;12.90;9.73;;;26.10;54.30;;;;;;5109246;27;20050;-61
2023/09/15 11:40:51;;;;;;;15.52;10.07;;;26.10;54.10;;;;;;5104014;27;20031;-61
2023/09/15 11:43:19;;;;;;;14.80;9.70;;;26.20;53.80;;;;;;5113876;27;20114;-62
2023/09/15 11:45:46;;;;;;;13.43;9.55;;;26.20;53.90;;;;;;5035357;27;20513;-61
2023/09/15 11:48:12;;;;;;;13.25;9.57;;;26.30;54.00;;;;;;5109361;27;20084;-63
2023/09/15 11:50:39;;;;;;;23.40;10.40;;;26.30;54.20;;;;;;5104688;28;20026;-63
2023/09/15 11:53:05;;;;;;;16.77;9.93;;;26.40;53.90;;;;;;5096170;28;20050;-61
2023/09/15 11:55:31;;;;;;;12.00;9.20;;;26.50;53.90;;;;;;5104193;28;20446;-62
2023/09/15 11:57:57;;;;;;;17.40;9.43;;;26.50;53.60;;;;;;5109031;27;20119;-62
2023/09/15 12:00:33;;;;;;;10.90;9.02;;;26.60;52.90;;;;;;5112468;27;20019;-62
2023/09/15 12:03:00;;;;;;;10.23;7.82;;;26.70;52.30;;;;;;5100811;28;20027;-62
2023/09/15 12:05:29;;;;;;;10.98;8.35;;;26.70;52.60;;;;;;5104878;28;20084;-62
2023/09/15 12:07:55;;;;;;;10.60;7.68;;;26.70;52.70;;;;;;5111695;28;20051;-63
2023/09/15 12:10:22;;;;;;;10.98;8.38;;;26.80;53.00;;;;;;5104305;28;20474;-63
2023/09/15 12:12:49;;;;;;;12.40;9.20;;;26.80;52.70;;;;;;5105439;28;20145;-62
2023/09/15 12:15:15;;;;;;;10.85;7.78;;;26.90;52.20;;;;;;5098786;28;20036;-62
2023/09/15 12:17:44;;;;;;;12.18;8.80;;;27.00;52.40;;;;;;5102239;28;20114;-61
2023/09/15 12:20:12;;;;;;;9.48;7.88;;;27.10;52.30;;;;;;5103317;28;20107;-61
2023/09/15 12:22:40;;;;;;;10.43;8.15;;;27.20;51.90;;;;;;5097558;28;20059;-63
2023/09/15 12:25:08;;;;;;;11.90;8.27;;;27.30;52.00;;;;;;5109028;28;20027;-62
2023/09/15 12:27:34;;;;;;;14.02;8.60;;;27.40;51.90;;;;;;5093866;28;20169;-63
2023/09/15 12:30:05;;;;;;;10.98;8.48;;;27.50;52.00;;;;;;5104457;28;20098;-63
2023/09/15 12:32:32;;;;;;;10.63;8.00;;;27.60;50.80;;;;;;5105616;27;20401;-62
2023/09/15 12:34:58;;;;;;;10.55;8.20;;;27.70;50.80;;;;;;5109004;27;20459;-62
2023/09/15 12:37:29;;;;;;;14.77;7.95;;;27.70;50.90;;;;;;5092991;28;20470;-61
2023/09/15 12:39:55;;;;;;;9.50;7.25;;;27.70;50.50;;;;;;5097186;27;20024;-62